Terminal Aerodrome Forecast
Issued by NWS

Current Version | Previous Version | Graphics & Text | Print | Product List | Glossary On
Versions: 1 2 3 4 5 6 7 8 9 10 11 12 13 14 15 16 17
000
FTUS41 KPBZ 021136
TAFMGW
TAF
KMGW 021136Z 0212/0312 VRB03KT P6SM BKN140
     FM021500 25005KT P6SM BKN040
     FM030900 00000KT 4SM BR SKC=

USA.gov is the U.S. government's official web portal to all federal, state and local government web resources and services.